Time;durP1;ratioP1;P1;durP2;ratioP2;P2;SDS_P1;SDS_P2;PMS_P1;PMS_P2;Temp;Humidity;BMP_temperature;BMP_pressure;BME280_temperature;BME280_humidity;BME280_pressure;Samples;Min_cycle;Max_cycle;Signal;HPM_P1;HPM_P2
2023/06/10 00:00:41;;;;;;;3.75;1.73;;;16.00;99.90;;;;;;5071420;28;20405;-62
2023/06/10 00:03:08;;;;;;;6.13;1.70;;;16.10;99.90;;;;;;5069440;28;20033;-63
2023/06/10 00:05:35;;;;;;;5.30;1.95;;;16.20;99.90;;;;;;5071214;28;20093;-63
2023/06/10 00:08:08;;;;;;;3.42;1.70;;;16.20;99.90;;;;;;5069699;28;20545;-63
2023/06/10 00:10:38;;;;;;;3.00;1.45;;;16.30;99.90;;;;;;5070591;28;20040;-63
2023/06/10 00:13:08;;;;;;;4.22;1.75;;;16.40;99.90;;;;;;5070662;28;20084;-63
2023/06/10 00:15:35;;;;;;;3.35;1.73;;;16.40;99.90;;;;;;5069102;28;20041;-63
2023/06/10 00:18:03;;;;;;;3.60;1.55;;;16.40;99.90;;;;;;5053045;28;20029;-63
2023/06/10 00:20:30;;;;;;;7.05;2.13;;;16.50;99.90;;;;;;5070870;28;20036;-63
2023/06/10 00:22:59;;;;;;;3.05;1.50;;;16.50;99.90;;;;;;5069201;28;20086;-63
2023/06/10 00:25:25;;;;;;;4.60;1.93;;;16.40;99.90;;;;;;5052754;28;20126;-63
2023/06/10 00:27:51;;;;;;;3.03;1.25;;;16.40;99.90;;;;;;5069271;28;20155;-63
2023/06/10 00:30:17;;;;;;;3.42;1.23;;;16.40;99.90;;;;;;5068679;28;20073;-63
2023/06/10 00:32:43;;;;;;;2.60;1.42;;;16.40;99.90;;;;;;5070745;28;20037;-62
2023/06/10 00:35:09;;;;;;;5.50;1.85;;;16.40;99.90;;;;;;5068532;28;20032;-62
2023/06/10 00:37:35;;;;;;;5.30;1.42;;;16.40;99.90;;;;;;5068517;28;20039;-62
2023/06/10 00:40:03;;;;;;;2.75;1.45;;;16.50;99.90;;;;;;5052327;28;20032;-63
2023/06/10 00:42:29;;;;;;;2.30;1.25;;;16.50;99.90;;;;;;5069200;28;20032;-62
2023/06/10 00:44:55;;;;;;;2.53;1.38;;;16.50;99.90;;;;;;5068547;28;20388;-63
2023/06/10 00:47:21;;;;;;;5.85;1.70;;;16.40;99.90;;;;;;5052776;28;20033;-63
2023/06/10 00:49:49;;;;;;;4.63;2.25;;;16.40;99.90;;;;;;5068631;28;20489;-64
2023/06/10 00:52:16;;;;;;;3.28;1.27;;;16.50;99.90;;;;;;5069680;28;20355;-63
2023/06/10 00:54:43;;;;;;;3.47;1.30;;;16.50;99.90;;;;;;5070304;28;20120;-62
2023/06/10 00:57:09;;;;;;;3.22;1.58;;;16.50;99.90;;;;;;5052490;28;20425;-62
2023/06/10 00:59:35;;;;;;;5.80;1.73;;;16.40;99.90;;;;;;5051671;28;20131;-62
2023/06/10 01:02:02;;;;;;;3.58;1.20;;;16.50;99.90;;;;;;5070154;28;20036;-62
2023/06/10 01:04:28;;;;;;;2.67;1.50;;;16.50;99.90;;;;;;5069915;28;20060;-62
2023/06/10 01:07:17;;;;;;;5.05;1.75;;;16.50;99.90;;;;;;5067940;28;20504;-63
2023/06/10 01:10:03;;;;;;;3.40;1.30;;;16.40;99.90;;;;;;5051729;28;20159;-62
2023/06/10 01:12:51;;;;;;;3.10;1.17;;;16.50;99.90;;;;;;5069002;28;20493;-63
2023/06/10 01:15:18;;;;;;;4.38;1.95;;;16.40;99.90;;;;;;5068291;28;20496;-62
2023/06/10 01:17:58;;;;;;;4.55;1.30;;;16.40;99.90;;;;;;5068305;28;20032;-63
2023/06/10 01:20:29;;;;;;;5.38;1.83;;;16.40;99.90;;;;;;5067587;28;20044;-63
2023/06/10 01:22:57;;;;;;;5.65;2.05;;;16.40;99.90;;;;;;5068236;28;20118;-63
2023/06/10 01:25:27;;;;;;;4.07;1.52;;;16.40;99.90;;;;;;5068136;28;20127;-63
2023/06/10 01:28:25;;;;;;;2.40;1.55;;;16.30;99.90;;;;;;5067962;28;20406;-63
2023/06/10 01:31:03;;;;;;;4.10;2.05;;;16.30;99.90;;;;;;5064228;28;20048;-63
2023/06/10 01:33:33;;;;;;;4.28;1.75;;;16.20;99.90;;;;;;5068821;28;20051;-63
2023/06/10 01:36:02;;;;;;;3.78;1.73;;;16.20;99.90;;;;;;5069576;28;20041;-63
2023/06/10 01:38:36;;;;;;;3.58;1.85;;;16.20;99.90;;;;;;5068304;28;20370;-63
2023/06/10 01:41:03;;;;;;;3.83;1.17;;;16.10;99.90;;;;;;5067318;28;20044;-63
2023/06/10 01:43:28;;;;;;;3.08;1.75;;;16.10;99.90;;;;;;5068013;28;20138;-63
2023/06/10 01:45:54;;;;;;;2.28;1.42;;;16.00;99.90;;;;;;5066990;28;20100;-62
2023/06/10 01:48:20;;;;;;;2.97;1.40;;;15.90;99.90;;;;;;5068635;28;20264;-62
2023/06/10 01:50:46;;;;;;;4.82;2.15;;;15.90;99.90;;;;;;5067516;28;20526;-63
2023/06/10 01:53:12;;;;;;;3.40;1.35;;;15.90;99.90;;;;;;5067878;28;20127;-62
2023/06/10 01:55:37;;;;;;;5.03;1.80;;;15.80;99.90;;;;;;5067274;28;20079;-63
2023/06/10 01:58:03;;;;;;;2.53;1.15;;;15.70;99.90;;;;;;5067856;28;20046;-63
2023/06/10 02:00:29;;;;;;;5.05;2.15;;;15.60;99.90;;;;;;5051034;28;20040;-63
2023/06/10 02:02:55;;;;;;;4.40;1.48;;;15.50;99.90;;;;;;5050833;28;20118;-63
2023/06/10 02:05:21;;;;;;;3.10;1.42;;;15.50;99.90;;;;;;5067864;28;20051;-63
2023/06/10 02:07:46;;;;;;;3.42;1.40;;;15.40;99.90;;;;;;5050564;28;20059;-63
2023/06/10 02:10:12;;;;;;;4.45;2.08;;;15.30;99.90;;;;;;5067829;28;20532;-64
2023/06/10 02:12:38;;;;;;;3.83;1.80;;;15.30;99.90;;;;;;5068701;28;20109;-62
2023/06/10 02:15:04;;;;;;;3.22;1.27;;;15.30;99.90;;;;;;5068367;28;20066;-63
2023/06/10 02:17:30;;;;;;;5.72;2.25;;;15.30;99.90;;;;;;5067455;28;20037;-63
2023/06/10 02:19:56;;;;;;;4.93;1.58;;;15.30;99.90;;;;;;5067660;28;20082;-63
2023/06/10 02:22:23;;;;;;;3.70;1.92;;;15.20;99.90;;;;;;5066975;28;20045;-63
2023/06/10 02:24:49;;;;;;;4.97;1.50;;;15.20;99.90;;;;;;5050949;28;20048;-63
2023/06/10 02:27:18;;;;;;;1.83;1.15;;;15.10;99.90;;;;;;5050906;28;20132;-65
2023/06/10 02:29:44;;;;;;;3.40;1.30;;;15.10;99.90;;;;;;5067242;28;20048;-63
2023/06/10 02:32:10;;;;;;;4.70;1.83;;;15.10;99.90;;;;;;5050626;28;20404;-65
2023/06/10 02:34:39;;;;;;;2.97;1.70;;;15.20;99.90;;;;;;5068923;28;20041;-62
2023/06/10 02:37:05;;;;;;;3.75;1.60;;;15.20;99.90;;;;;;5068289;28;20033;-62
2023/06/10 02:39:31;;;;;;;2.58;1.58;;;15.20;99.90;;;;;;5068493;28;20094;-62
2023/06/10 02:41:56;;;;;;;2.40;1.40;;;15.20;99.90;;;;;;5068564;28;20040;-62
2023/06/10 02:44:22;;;;;;;2.08;1.15;;;15.30;99.90;;;;;;5066573;28;20051;-62
2023/06/10 02:46:48;;;;;;;5.70;2.65;;;15.30;99.90;;;;;;5068412;28;20036;-62
2023/06/10 02:49:14;;;;;;;3.72;2.10;;;15.40;99.90;;;;;;5050434;28;20127;-62
2023/06/10 02:51:39;;;;;;;2.50;1.58;;;15.40;99.90;;;;;;5066257;28;20135;-62
2023/06/10 02:54:06;;;;;;;1.75;1.10;;;15.40;99.90;;;;;;5066962;28;20060;-62
2023/06/10 02:56:33;;;;;;;2.85;1.13;;;15.30;99.90;;;;;;5067048;28;20275;-62
2023/06/10 02:58:59;;;;;;;4.97;1.50;;;15.30;99.90;;;;;;5070110;28;20072;-63
2023/06/10 03:01:25;;;;;;;11.55;1.58;;;15.30;99.90;;;;;;5070918;28;20049;-62
2023/06/10 03:03:51;;;;;;;4.35;1.33;;;15.30;99.90;;;;;;5070432;28;20045;-63
2023/06/10 03:06:17;;;;;;;4.63;1.80;;;15.30;99.90;;;;;;5072443;28;20048;-65
2023/06/10 03:08:43;;;;;;;2.22;1.55;;;15.30;99.90;;;;;;5071002;28;20040;-64
2023/06/10 03:11:10;;;;;;;4.47;2.33;;;15.30;99.90;;;;;;5071841;28;20491;-63
2023/06/10 03:13:36;;;;;;;6.35;1.77;;;15.20;99.90;;;;;;5070685;28;20083;-62
2023/06/10 03:16:03;;;;;;;4.32;2.30;;;15.20;99.90;;;;;;5071842;28;20076;-62
2023/06/10 03:18:29;;;;;;;6.35;1.80;;;15.10;99.90;;;;;;5071456;28;20040;-64
2023/06/10 03:20:56;;;;;;;4.50;2.17;;;15.10;99.90;;;;;;5070424;28;20063;-62
2023/06/10 03:23:22;;;;;;;2.75;1.42;;;15.10;99.90;;;;;;5071956;28;20117;-62
2023/06/10 03:25:48;;;;;;;4.63;1.85;;;15.10;99.90;;;;;;5071378;28;20060;-61
2023/06/10 03:28:14;;;;;;;4.25;1.58;;;15.10;99.90;;;;;;5070667;28;20044;-62
2023/06/10 03:30:40;;;;;;;4.78;1.90;;;15.10;99.90;;;;;;5071690;28;20495;-62
2023/06/10 03:33:06;;;;;;;2.80;1.65;;;15.00;99.90;;;;;;5069733;28;20047;-63
2023/06/10 03:35:32;;;;;;;3.35;1.60;;;15.00;99.90;;;;;;5070628;28;20040;-61
2023/06/10 03:37:58;;;;;;;3.30;1.58;;;14.90;99.90;;;;;;5071789;28;20138;-63
2023/06/10 03:40:24;;;;;;;4.15;1.67;;;14.90;99.90;;;;;;5071430;28;20037;-62
2023/06/10 03:42:50;;;;;;;3.50;1.63;;;14.90;99.90;;;;;;5070174;28;20063;-63
2023/06/10 03:45:16;;;;;;;2.53;1.30;;;14.90;99.90;;;;;;5070072;28;20037;-62
2023/06/10 03:47:43;;;;;;;3.03;1.35;;;14.90;99.90;;;;;;5071024;28;20120;-62
2023/06/10 03:50:09;;;;;;;4.65;1.75;;;14.90;99.90;;;;;;5070072;28;20056;-61
2023/06/10 03:52:36;;;;;;;5.25;1.83;;;14.90;99.90;;;;;;5070899;28;20131;-62
2023/06/10 03:55:02;;;;;;;4.25;1.73;;;14.80;99.90;;;;;;5069955;28;20036;-62
2023/06/10 03:57:28;;;;;;;1.98;1.05;;;14.90;99.90;;;;;;5053474;28;20036;-63
2023/06/10 03:59:55;;;;;;;3.10;1.60;;;14.90;99.90;;;;;;5069277;28;20467;-63
2023/06/10 04:02:21;;;;;;;3.30;1.40;;;14.90;99.90;;;;;;5071568;28;20041;-62
2023/06/10 04:04:46;;;;;;;3.35;1.50;;;14.90;99.90;;;;;;5069864;28;20033;-64
2023/06/10 04:07:13;;;;;;;3.58;1.48;;;14.90;99.90;;;;;;5069464;28;20073;-63
2023/06/10 04:09:39;;;;;;;2.78;1.23;;;14.90;99.90;;;;;;5068707;28;20546;-62
2023/06/10 04:12:10;;;;;;;3.20;2.03;;;14.90;99.90;;;;;;5069714;28;20040;-63
2023/06/10 04:14:37;;;;;;;2.80;1.52;;;14.80;99.90;;;;;;5068960;28;20535;-64
2023/06/10 04:17:06;;;;;;;2.72;1.67;;;14.80;99.90;;;;;;5069561;28;20091;-62
2023/06/10 04:19:32;;;;;;;2.90;1.87;;;14.80;99.90;;;;;;5069537;28;20044;-63
2023/06/10 04:22:00;;;;;;;4.22;2.08;;;14.80;99.90;;;;;;5068791;28;20290;-63
2023/06/10 04:24:26;;;;;;;4.57;1.75;;;14.80;99.90;;;;;;5069456;28;20040;-63
2023/06/10 04:26:52;;;;;;;2.92;1.60;;;14.80;99.90;;;;;;5069358;28;20166;-62
2023/06/10 04:29:18;;;;;;;3.03;1.40;;;14.80;99.90;;;;;;5052080;28;20043;-63
2023/06/10 04:31:46;;;;;;;2.42;1.50;;;14.90;99.90;;;;;;5070688;28;20133;-63
2023/06/10 04:34:12;;;;;;;5.38;1.75;;;14.90;99.90;;;;;;5070452;28;20052;-62
2023/06/10 04:36:38;;;;;;;2.95;1.30;;;14.90;99.90;;;;;;5068892;28;20133;-63
2023/06/10 04:39:05;;;;;;;3.55;1.48;;;14.90;99.90;;;;;;5069985;28;20067;-62
2023/06/10 04:41:31;;;;;;;5.10;1.50;;;14.90;99.90;;;;;;5070677;28;20451;-63
2023/06/10 04:43:57;;;;;;;3.80;1.58;;;15.00;99.90;;;;;;5068647;28;20577;-62
2023/06/10 04:46:24;;;;;;;3.10;1.45;;;15.00;99.90;;;;;;5068295;28;20654;-62
2023/06/10 04:48:50;;;;;;;3.35;1.27;;;15.00;99.90;;;;;;5069943;28;20044;-64
2023/06/10 04:51:16;;;;;;;3.83;1.88;;;15.00;99.90;;;;;;5036384;28;20090;-63
2023/06/10 04:53:42;;;;;;;4.78;1.80;;;15.10;99.90;;;;;;5052901;28;20423;-63
2023/06/10 04:56:08;;;;;;;3.30;1.77;;;15.10;99.90;;;;;;5069362;28;20036;-63
2023/06/10 04:58:34;;;;;;;2.85;1.42;;;15.10;99.90;;;;;;5069565;28;20040;-63
2023/06/10 05:01:01;;;;;;;3.72;1.50;;;15.20;99.90;;;;;;5070018;28;20354;-67
2023/06/10 05:03:27;;;;;;;3.53;1.70;;;15.30;99.90;;;;;;5069176;28;20049;-63
2023/06/10 05:05:53;;;;;;;5.60;1.98;;;15.40;99.90;;;;;;5052766;28;20040;-64
2023/06/10 05:08:19;;;;;;;5.10;1.17;;;15.40;99.90;;;;;;5069787;28;20044;-63
2023/06/10 05:10:45;;;;;;;5.32;1.58;;;15.50;99.90;;;;;;5070184;28;20392;-64
2023/06/10 05:13:10;;;;;;;2.83;1.67;;;15.60;99.90;;;;;;5070739;28;20040;-63
2023/06/10 05:15:37;;;;;;;3.13;1.58;;;15.60;99.90;;;;;;5070370;28;20041;-64
2023/06/10 05:18:03;;;;;;;5.70;1.90;;;15.70;99.90;;;;;;5068823;28;20040;-63
2023/06/10 05:20:29;;;;;;;3.00;1.75;;;15.80;99.90;;;;;;5069041;28;20090;-63
2023/06/10 05:22:55;;;;;;;2.25;1.33;;;15.80;99.90;;;;;;5068076;28;20518;-63
2023/06/10 05:25:21;;;;;;;3.33;1.58;;;15.90;99.90;;;;;;5067669;28;20052;-63
2023/06/10 05:27:47;;;;;;;4.70;1.77;;;16.00;99.90;;;;;;5068262;28;20071;-63
2023/06/10 05:30:13;;;;;;;3.22;1.38;;;16.10;99.90;;;;;;5068576;28;20133;-64
2023/06/10 05:32:39;;;;;;;3.00;1.50;;;16.20;99.90;;;;;;5069198;28;20044;-62
2023/06/10 05:35:06;;;;;;;4.45;1.83;;;16.20;99.90;;;;;;5068353;28;20040;-63
2023/06/10 05:37:34;;;;;;;2.05;1.42;;;16.30;99.90;;;;;;5051534;28;20314;-63
2023/06/10 05:40:00;;;;;;;3.17;1.42;;;16.40;99.90;;;;;;5068058;28;20083;-62
2023/06/10 05:42:26;;;;;;;4.07;2.13;;;16.50;99.90;;;;;;5069412;28;20064;-63
2023/06/10 05:44:51;;;;;;;3.28;1.33;;;16.60;99.90;;;;;;5068796;28;20043;-63
2023/06/10 05:47:17;;;;;;;5.65;1.65;;;16.70;99.90;;;;;;5068100;28;20047;-64
2023/06/10 05:49:45;;;;;;;3.70;1.33;;;16.80;99.90;;;;;;5050841;28;20101;-65
2023/06/10 05:52:11;;;;;;;2.28;1.15;;;16.90;99.90;;;;;;5067445;28;20041;-65
2023/06/10 05:54:37;;;;;;;3.10;1.17;;;17.00;99.90;;;;;;5069131;28;20452;-64
2023/06/10 05:57:03;;;;;;;4.75;1.55;;;17.10;99.90;;;;;;5068041;28;20033;-63
2023/06/10 05:59:29;;;;;;;3.17;1.50;;;17.20;99.90;;;;;;5069078;28;20136;-63
2023/06/10 06:01:55;;;;;;;1.63;1.25;;;17.30;99.90;;;;;;5068259;28;20131;-64
2023/06/10 06:04:20;;;;;;;4.72;1.98;;;17.40;99.90;;;;;;5069065;28;20546;-65
2023/06/10 06:06:46;;;;;;;2.70;1.50;;;17.50;99.90;;;;;;5067165;28;20386;-64
2023/06/10 06:09:12;;;;;;;2.85;1.42;;;17.60;99.90;;;;;;5050834;28;20098;-64
2023/06/10 06:11:38;;;;;;;1.90;1.00;;;17.60;99.90;;;;;;5067433;28;20048;-64
2023/06/10 06:14:04;;;;;;;2.05;1.42;;;17.80;99.90;;;;;;5050167;28;20044;-64
2023/06/10 06:16:30;;;;;;;3.58;1.80;;;17.80;99.90;;;;;;5067711;28;20059;-64
2023/06/10 06:18:56;;;;;;;3.45;1.55;;;18.00;99.90;;;;;;5067456;28;20070;-64
2023/06/10 06:21:22;;;;;;;3.50;1.80;;;18.10;99.90;;;;;;5066813;28;20090;-64
2023/06/10 06:23:47;;;;;;;3.20;1.75;;;18.20;99.90;;;;;;5067711;28;20101;-64
2023/06/10 06:26:13;;;;;;;3.45;1.58;;;18.30;99.90;;;;;;5068694;28;20101;-64
2023/06/10 06:28:39;;;;;;;2.35;1.67;;;18.40;99.90;;;;;;5068189;28;20048;-64
2023/06/10 06:31:06;;;;;;;5.22;1.48;;;18.60;99.90;;;;;;5068694;28;20099;-64
2023/06/10 06:33:32;;;;;;;2.50;1.17;;;18.80;99.90;;;;;;5070315;28;20500;-66
2023/06/10 06:36:00;;;;;;;4.80;1.58;;;19.10;99.90;;;;;;5071639;28;20043;-64
2023/06/10 06:38:26;;;;;;;2.75;1.50;;;19.30;99.90;;;;;;5072044;28;20044;-64
2023/06/10 06:40:52;;;;;;;2.05;0.95;;;19.60;99.90;;;;;;5054199;28;20512;-65
2023/06/10 06:43:18;;;;;;;2.20;1.40;;;19.80;99.90;;;;;;5071251;28;20123;-64
2023/06/10 06:45:45;;;;;;;1.85;1.13;;;20.00;99.90;;;;;;5071231;28;20078;-65
2023/06/10 06:48:11;;;;;;;3.55;1.35;;;20.00;99.90;;;;;;5072161;28;20044;-65
2023/06/10 06:50:37;;;;;;;3.20;1.30;;;20.20;99.90;;;;;;5071175;28;20079;-65
2023/06/10 06:53:04;;;;;;;3.80;1.60;;;20.40;99.90;;;;;;5071086;28;20528;-65
2023/06/10 06:55:30;;;;;;;2.28;1.23;;;20.50;99.90;;;;;;5072090;28;20032;-64
2023/06/10 06:57:56;;;;;;;5.43;1.60;;;20.70;99.90;;;;;;5054594;28;20435;-65
2023/06/10 07:00:22;;;;;;;4.90;2.40;;;20.90;99.90;;;;;;5071139;28;20040;-65
2023/06/10 07:02:48;;;;;;;6.18;1.27;;;21.20;99.90;;;;;;5070342;28;20485;-65
2023/06/10 07:05:14;;;;;;;4.32;1.38;;;21.40;99.90;;;;;;5070986;28;20044;-64
2023/06/10 07:07:40;;;;;;;2.97;1.42;;;21.50;99.90;;;;;;5071016;28;20064;-64
2023/06/10 07:10:06;;;;;;;2.17;0.93;;;21.60;99.90;;;;;;5070206;28;20083;-65
2023/06/10 07:12:32;;;;;;;2.10;1.05;;;21.80;99.90;;;;;;5072227;28;20063;-65
2023/06/10 07:14:58;;;;;;;2.95;1.50;;;21.90;99.90;;;;;;5070696;28;20489;-65
2023/06/10 07:17:24;;;;;;;2.13;1.08;;;22.10;99.90;;;;;;5070009;28;20054;-64
2023/06/10 07:19:51;;;;;;;3.63;1.40;;;22.20;99.90;;;;;;5071859;28;20044;-65
2023/06/10 07:22:17;;;;;;;5.07;1.35;;;22.40;99.90;;;;;;5054098;28;20036;-64
2023/06/10 07:24:43;;;;;;;1.13;0.55;;;22.70;99.90;;;;;;5070022;28;20109;-65
2023/06/10 07:27:10;;;;;;;3.13;1.13;;;22.90;99.90;;;;;;5070623;28;20036;-65
2023/06/10 07:29:36;;;;;;;1.42;0.80;;;23.10;99.90;;;;;;5071504;28;20071;-65
2023/06/10 07:32:03;;;;;;;2.15;1.13;;;23.50;99.90;;;;;;5072110;28;20424;-65
2023/06/10 07:34:29;;;;;;;1.33;0.85;;;23.60;99.90;;;;;;5070316;28;20127;-66
2023/06/10 07:36:55;;;;;;;2.20;1.23;;;23.70;99.90;;;;;;5053394;28;20174;-65
2023/06/10 07:39:21;;;;;;;2.75;1.92;;;23.70;98.70;;;;;;5070455;28;20193;-65
2023/06/10 07:41:48;;;;;;;2.80;1.23;;;23.70;98.00;;;;;;5071794;28;20040;-64
2023/06/10 07:44:14;;;;;;;1.85;1.17;;;23.80;98.40;;;;;;5071031;28;20036;-66
2023/06/10 07:46:40;;;;;;;2.80;1.25;;;24.00;98.00;;;;;;5070153;28;20493;-65
2023/06/10 07:49:06;;;;;;;2.65;1.25;;;24.00;97.00;;;;;;5071340;28;20054;-65
2023/06/10 07:51:32;;;;;;;5.32;1.10;;;24.00;96.30;;;;;;5052679;28;20143;-65
2023/06/10 07:53:58;;;;;;;1.73;0.90;;;24.00;97.30;;;;;;5070296;28;20386;-67
2023/06/10 07:56:25;;;;;;;3.17;1.63;;;24.10;96.90;;;;;;5071550;28;20064;-65
2023/06/10 07:58:51;;;;;;;3.03;1.42;;;24.30;96.30;;;;;;5070658;28;20119;-65
2023/06/10 08:01:16;;;;;;;2.53;0.88;;;24.50;96.70;;;;;;5071439;28;20108;-65
2023/06/10 08:03:43;;;;;;;3.58;0.90;;;24.50;95.90;;;;;;5069893;28;20511;-65
2023/06/10 08:06:11;;;;;;;1.27;0.70;;;24.60;95.90;;;;;;5069427;28;20048;-65
2023/06/10 08:08:41;;;;;;;1.63;0.95;;;24.70;96.10;;;;;;5070044;28;20037;-64
2023/06/10 08:11:08;;;;;;;2.15;1.00;;;24.80;95.60;;;;;;5069727;28;20086;-64
2023/06/10 08:13:33;;;;;;;3.10;1.30;;;24.80;95.50;;;;;;5070192;28;20554;-64
2023/06/10 08:15:59;;;;;;;2.78;1.00;;;25.10;95.10;;;;;;5070727;28;20036;-65
2023/06/10 08:18:26;;;;;;;2.22;0.95;;;25.30;95.00;;;;;;5069563;28;20098;-65
2023/06/10 08:20:52;;;;;;;3.03;1.00;;;25.50;94.80;;;;;;5069206;28;20047;-65
2023/06/10 08:23:19;;;;;;;1.80;0.80;;;25.70;94.50;;;;;;5071045;28;20443;-65
2023/06/10 08:25:45;;;;;;;1.42;0.73;;;25.90;93.50;;;;;;5052588;28;20036;-65
2023/06/10 08:28:11;;;;;;;2.58;1.08;;;26.10;92.80;;;;;;5069450;28;20121;-65
2023/06/10 08:30:37;;;;;;;2.55;1.10;;;26.30;92.70;;;;;;5069580;28;20083;-64
2023/06/10 08:33:02;;;;;;;3.33;1.13;;;26.40;91.90;;;;;;5068980;28;20469;-66
2023/06/10 08:35:28;;;;;;;2.42;0.95;;;26.50;91.50;;;;;;5069591;28;20381;-64
2023/06/10 08:37:54;;;;;;;1.95;0.70;;;26.40;91.70;;;;;;5069125;28;20040;-65
2023/06/10 08:40:20;;;;;;;2.58;0.88;;;26.60;91.40;;;;;;5068558;28;20098;-64
2023/06/10 08:42:51;;;;;;;2.55;1.20;;;26.80;91.30;;;;;;5069429;28;20041;-65
2023/06/10 08:45:20;;;;;;;2.65;1.13;;;26.90;90.00;;;;;;5069664;28;20382;-65
2023/06/10 08:47:53;;;;;;;2.20;0.77;;;27.00;89.60;;;;;;5068377;28;20040;-65
2023/06/10 08:50:19;;;;;;;1.65;0.95;;;27.00;87.90;;;;;;5070229;28;20056;-64
2023/06/10 08:52:50;;;;;;;4.55;1.08;;;27.20;89.40;;;;;;5068871;28;20051;-65
2023/06/10 08:55:22;;;;;;;3.08;1.00;;;27.40;87.50;;;;;;5051300;28;20538;-64
2023/06/10 08:57:48;;;;;;;3.35;1.05;;;27.50;87.60;;;;;;5069823;28;20095;-64
2023/06/10 09:00:16;;;;;;;3.05;0.95;;;27.50;86.10;;;;;;5068833;28;20040;-64
2023/06/10 09:02:43;;;;;;;3.00;0.90;;;27.60;86.70;;;;;;5051449;28;20098;-66
2023/06/10 09:05:10;;;;;;;3.67;1.10;;;27.60;87.10;;;;;;5068456;28;20046;-64
2023/06/10 09:07:36;;;;;;;1.92;1.13;;;27.60;86.90;;;;;;5069066;28;20518;-65
2023/06/10 09:10:06;;;;;;;2.45;0.80;;;27.80;86.90;;;;;;5069832;28;20071;-64
2023/06/10 09:12:35;;;;;;;2.80;1.08;;;28.20;86.20;;;;;;5051628;28;20508;-64
2023/06/10 09:15:05;;;;;;;2.22;1.15;;;28.30;84.60;;;;;;5068867;28;20044;-64
2023/06/10 09:17:31;;;;;;;2.95;1.23;;;28.40;85.10;;;;;;5051898;28;20050;-65
2023/06/10 09:19:57;;;;;;;1.85;0.85;;;28.60;85.20;;;;;;5068105;28;20040;-64
2023/06/10 09:22:23;;;;;;;2.33;1.13;;;28.50;82.70;;;;;;5067512;28;20040;-64
2023/06/10 09:24:49;;;;;;;5.32;1.20;;;28.50;81.60;;;;;;5051862;28;20374;-64
2023/06/10 09:27:15;;;;;;;2.20;1.13;;;28.60;80.90;;;;;;5069355;28;20063;-64
2023/06/10 09:29:52;;;;;;;2.17;1.15;;;28.60;79.10;;;;;;5069117;28;20036;-64
2023/06/10 09:32:19;;;;;;;1.33;0.70;;;28.50;69.70;;;;;;5069525;28;20044;-65
2023/06/10 09:34:46;;;;;;;2.80;0.95;;;28.50;77.70;;;;;;5051214;28;20041;-65
2023/06/10 09:37:13;;;;;;;2.33;1.33;;;28.50;78.50;;;;;;5067322;28;20040;-65
2023/06/10 09:39:40;;;;;;;3.38;1.00;;;28.70;79.40;;;;;;5067775;28;20544;-65
2023/06/10 09:42:18;;;;;;;1.83;0.80;;;28.90;79.30;;;;;;5067833;28;20075;-65
2023/06/10 09:44:51;;;;;;;;;;;29.10;77.90;;;;;;5068823;28;20047;-64
2023/06/10 09:47:23;;;;;;;2.00;0.73;;;29.30;72.50;;;;;;5067612;28;19950;-64
2023/06/10 09:49:50;;;;;;;1.75;0.90;;;29.50;77.10;;;;;;5050165;28;20074;-65
2023/06/10 09:52:28;;;;;;;3.47;0.93;;;29.60;76.70;;;;;;5069113;28;20599;-65
2023/06/10 09:54:58;;;;;;;2.53;0.73;;;29.70;70.20;;;;;;5050975;28;20045;-65
2023/06/10 09:57:24;;;;;;;1.80;1.13;;;29.70;73.50;;;;;;5067203;28;20132;-65
2023/06/10 09:59:54;;;;;;;1.77;0.82;;;29.70;75.10;;;;;;5051262;28;20442;-64
2023/06/10 10:02:20;;;;;;;2.03;1.00;;;29.80;74.70;;;;;;5067522;28;20089;-65
2023/06/10 10:04:46;;;;;;;1.80;1.05;;;29.90;73.20;;;;;;5067260;28;20603;-65
2023/06/10 10:07:13;;;;;;;2.08;0.80;;;30.00;73.70;;;;;;5066800;28;20041;-65
2023/06/10 10:09:40;;;;;;;4.57;0.95;;;30.10;73.70;;;;;;5068681;28;20044;-65
2023/06/10 10:12:11;;;;;;;1.88;0.70;;;30.30;72.10;;;;;;5068158;28;20417;-64
2023/06/10 10:14:38;;;;;;;3.25;0.98;;;30.40;71.00;;;;;;5050732;28;20128;-65
2023/06/10 10:17:11;;;;;;;2.45;1.02;;;30.50;70.60;;;;;;5069055;28;20048;-64
2023/06/10 10:19:47;;;;;;;1.75;0.90;;;30.70;69.00;;;;;;5068183;28;20045;-66
2023/06/10 10:22:19;;;;;;;3.00;1.27;;;30.80;67.30;;;;;;5051169;28;20439;-64
2023/06/10 10:24:50;;;;;;;2.10;1.17;;;30.90;66.10;;;;;;5068416;28;20044;-64
2023/06/10 10:27:28;;;;;;;2.60;0.68;;;30.80;65.80;;;;;;5050905;28;20515;-66
2023/06/10 10:29:58;;;;;;;1.98;0.70;;;30.90;60.30;;;;;;5056336;28;20033;-65
2023/06/10 10:32:38;;;;;;;2.45;1.20;;;31.00;63.90;;;;;;5062987;28;20068;-64
2023/06/10 10:35:10;;;;;;;2.20;0.80;;;30.90;63.80;;;;;;5067220;28;20500;-65
2023/06/10 10:37:36;;;;;;;2.55;0.80;;;30.90;62.60;;;;;;5056643;28;20374;-65
2023/06/10 10:40:03;;;;;;;1.45;0.68;;;31.10;63.50;;;;;;5046606;28;20068;-65
2023/06/10 10:42:29;;;;;;;1.63;0.80;;;31.20;63.70;;;;;;5047314;28;20405;-65
2023/06/10 10:44:56;;;;;;;2.15;0.85;;;31.30;62.60;;;;;;5046457;28;20045;-65
2023/06/10 10:47:26;;;;;;;1.25;0.70;;;31.20;61.20;;;;;;5030170;28;20041;-67
2023/06/10 10:49:58;;;;;;;2.05;0.80;;;31.10;61.30;;;;;;5052830;28;20428;-64
2023/06/10 10:52:26;;;;;;;1.90;0.80;;;31.00;58.70;;;;;;5046759;28;20055;-65
2023/06/10 10:54:53;;;;;;;1.77;0.93;;;31.00;59.60;;;;;;5046400;28;20044;-66
2023/06/10 10:57:21;;;;;;;1.23;0.53;;;31.00;59.30;;;;;;5047049;28;20040;-66
2023/06/10 10:59:56;;;;;;;1.42;0.75;;;31.00;57.80;;;;;;5046300;28;20283;-66
2023/06/10 11:02:44;;;;;;;1.55;1.00;;;31.10;56.60;;;;;;5048130;28;20045;-65
2023/06/10 11:05:17;;;;;;;1.75;0.60;;;31.10;48.50;;;;;;5047059;28;20039;-65
2023/06/10 11:07:55;;;;;;;1.95;1.02;;;31.10;52.50;;;;;;5047624;28;20033;-65
2023/06/10 11:10:32;;;;;;;3.08;1.23;;;31.20;53.00;;;;;;5047077;28;20051;-65
2023/06/10 11:12:59;;;;;;;1.25;0.75;;;31.20;55.10;;;;;;5030228;28;20041;-65
2023/06/10 11:15:27;;;;;;;1.38;0.73;;;31.20;55.60;;;;;;5029588;28;20058;-65
2023/06/10 11:18:21;;;;;;;1.08;0.68;;;31.30;54.80;;;;;;5047173;28;20049;-65
2023/06/10 11:20:50;;;;;;;1.20;0.52;;;31.40;52.40;;;;;;5049300;28;20070;-65
2023/06/10 11:23:27;;;;;;;1.15;0.60;;;31.50;55.20;;;;;;5050467;28;20033;-65
2023/06/10 11:26:34;;;;;;;1.63;0.73;;;31.70;54.00;;;;;;5057837;28;20052;-64
2023/06/10 11:29:00;;;;;;;1.25;0.68;;;31.80;53.60;;;;;;5065172;28;20271;-66
2023/06/10 11:31:28;;;;;;;2.45;0.70;;;31.80;55.30;;;;;;5071860;28;20040;-65
2023/06/10 11:33:56;;;;;;;0.90;0.60;;;31.90;55.20;;;;;;5071074;28;20048;-65
2023/06/10 11:36:22;;;;;;;1.27;0.70;;;31.90;55.40;;;;;;5069359;28;20492;-65
2023/06/10 11:38:49;;;;;;;1.17;0.70;;;31.80;54.90;;;;;;5070444;28;20041;-65
2023/06/10 11:41:15;;;;;;;1.65;0.93;;;31.90;54.60;;;;;;5070147;28;20044;-66
2023/06/10 11:43:44;;;;;;;1.33;0.65;;;32.00;55.10;;;;;;5069650;28;20036;-66
2023/06/10 11:46:11;;;;;;;1.25;0.60;;;31.90;53.90;;;;;;5070317;28;20048;-65
2023/06/10 11:48:37;;;;;;;1.70;0.80;;;32.00;55.40;;;;;;5069602;28;20040;-68
2023/06/10 11:51:09;;;;;;;1.58;0.77;;;32.00;53.60;;;;;;5069647;28;20060;-67
2023/06/10 11:53:35;;;;;;;1.75;0.50;;;32.00;52.10;;;;;;5069822;28;20179;-65
2023/06/10 11:56:01;;;;;;;2.17;0.95;;;31.90;52.50;;;;;;5069067;28;20041;-65
2023/06/10 11:58:27;;;;;;;0.95;0.50;;;31.80;54.00;;;;;;5070163;28;20044;-65
2023/06/10 12:00:57;;;;;;;1.50;0.70;;;31.80;55.40;;;;;;5069937;28;20488;-65
2023/06/10 12:03:25;;;;;;;1.70;1.00;;;31.90;54.50;;;;;;5062773;28;20060;-65
2023/06/10 12:06:05;;;;;;;1.75;0.80;;;31.90;52.50;;;;;;5067627;28;20036;-66
2023/06/10 12:08:32;;;;;;;1.52;0.60;;;31.70;50.30;;;;;;5068958;28;20505;-65
2023/06/10 12:10:58;;;;;;;1.60;0.65;;;31.60;51.90;;;;;;5054405;28;20506;-65
2023/06/10 12:13:27;;;;;;;2.00;0.90;;;31.50;51.00;;;;;;5049114;28;20614;-65
2023/06/10 12:15:53;;;;;;;1.80;0.80;;;31.60;52.30;;;;;;5047940;28;20493;-65
2023/06/10 12:18:20;;;;;;;1.27;0.45;;;31.60;51.80;;;;;;5048352;28;20037;-67
2023/06/10 12:20:46;;;;;;;1.60;0.82;;;31.60;52.60;;;;;;5047787;28;20391;-65
2023/06/10 12:23:13;;;;;;;1.50;0.60;;;31.50;50.20;;;;;;5049697;28;20052;-65
2023/06/10 12:25:39;;;;;;;1.60;0.77;;;31.50;50.40;;;;;;5060000;28;20149;-65
2023/06/10 12:28:06;;;;;;;1.50;0.85;;;31.50;50.20;;;;;;5068694;28;20059;-65
2023/06/10 12:30:33;;;;;;;1.33;0.50;;;31.40;50.50;;;;;;5068813;28;20052;-65
2023/06/10 12:32:58;;;;;;;1.38;0.52;;;31.30;50.30;;;;;;5070726;28;20128;-65
2023/06/10 12:35:27;;;;;;;1.20;0.70;;;31.20;48.40;;;;;;5069242;28;20131;-65
2023/06/10 12:38:07;;;;;;;1.80;0.80;;;31.20;49.50;;;;;;5052082;28;20139;-65
2023/06/10 12:40:37;;;;;;;1.98;0.82;;;31.10;48.50;;;;;;5069490;28;20385;-65
2023/06/10 12:43:03;;;;;;;0.93;0.50;;;31.10;49.90;;;;;;5069101;28;20044;-65
2023/06/10 12:45:35;;;;;;;3.08;1.13;;;31.00;49.10;;;;;;5068897;28;20048;-65
2023/06/10 12:48:16;;;;;;;1.58;0.68;;;31.00;49.10;;;;;;5069498;28;20040;-64
2023/06/10 12:50:43;;;;;;;1.83;0.85;;;30.70;48.80;;;;;;5068952;28;20117;-64